Time;durP1;ratioP1;P1;durP2;ratioP2;P2;SDS_P1;SDS_P2;PMS_P1;PMS_P2;Temp;Humidity;BMP_temperature;BMP_pressure;BME280_temperature;BME280_humidity;BME280_pressure;Samples;Min_cycle;Max_cycle;Signal;HPM_P1;HPM_P2
2021/03/03 00:00:14;;;;;;;8.53;4.75;;;;;;;0.95;65.59;99304.60;1672827;85;21171;-64
2021/03/03 00:02:43;;;;;;;8.23;5.47;;;;;;;0.95;65.55;99308.44;1672345;85;21144;-67
2021/03/03 00:05:15;;;;;;;11.90;5.25;;;;;;;0.93;65.13;99305.92;1672479;85;21180;-65
2021/03/03 00:07:43;;;;;;;13.58;5.22;;;;;;;0.94;65.57;99304.20;1672587;85;21278;-65
2021/03/03 00:10:18;;;;;;;8.08;5.30;;;;;;;0.94;64.78;99305.05;1672426;85;21171;-65
2021/03/03 00:12:46;;;;;;;7.35;3.77;;;;;;;0.95;64.94;99299.05;1672434;85;21179;-65
2021/03/03 00:15:16;;;;;;;5.08;3.30;;;;;;;0.97;64.32;99293.89;1672630;85;21188;-64
2021/03/03 00:17:45;;;;;;;7.40;3.45;;;;;;;0.98;64.30;99294.27;1672894;85;21219;-64
2021/03/03 00:20:15;;;;;;;6.65;4.28;;;;;;;1.00;64.30;99297.63;1672547;85;21179;-65
2021/03/03 00:22:43;;;;;;;7.92;3.85;;;;;;;0.93;64.05;99277.78;1672429;85;21179;-64
2021/03/03 00:25:12;;;;;;;7.78;4.00;;;;;;;0.93;64.05;99277.78;1672370;85;21131;-66
2021/03/03 00:27:43;;;;;;;12.05;5.37;;;;;;;0.98;64.43;99289.14;1671921;86;21203;-66
2021/03/03 00:30:18;;;;;;;7.37;3.92;;;;;;;0.96;63.81;99284.55;1672037;86;21163;-66
2021/03/03 00:32:46;;;;;;;11.08;5.17;;;;;;;0.96;65.67;99288.38;1672304;85;21628;-66
2021/03/03 00:35:16;;;;;;;11.22;5.28;;;;;;;0.96;65.67;99288.38;1672275;85;21239;-66
2021/03/03 00:37:44;;;;;;;8.78;4.58;;;;;;;0.92;64.09;99289.36;1672315;86;21624;-67
2021/03/03 00:40:16;;;;;;;12.05;5.85;;;;;;;0.91;64.96;99282.57;1672334;85;21738;-66
2021/03/03 00:42:44;;;;;;;8.88;5.50;;;;;;;0.81;67.70;99280.78;1672361;85;21603;-65
2021/03/03 00:45:14;;;;;;;12.13;5.08;;;;;;;0.73;68.94;99282.74;1672250;85;21179;-65
2021/03/03 00:47:42;;;;;;;13.48;6.03;;;;;;;0.65;68.37;99283.87;1672627;85;21162;-65
2021/03/03 00:50:13;;;;;;;9.85;5.08;;;;;;;0.56;69.99;99287.98;1672472;85;21195;-64
2021/03/03 00:52:46;;;;;;;9.95;5.65;;;;;;;0.51;70.24;99279.66;1672626;85;21175;-66
2021/03/03 00:55:15;;;;;;;9.13;4.95;;;;;;;0.45;69.22;99278.95;1672547;85;21613;-66
2021/03/03 00:57:43;;;;;;;5.33;3.50;;;;;;;0.41;68.71;99275.26;1672516;85;21192;-65
2021/03/03 01:00:16;;;;;;;7.65;4.92;;;;;;;0.40;68.53;99273.58;1671770;85;21203;-65
2021/03/03 01:02:45;;;;;;;10.68;4.85;;;;;;;0.40;67.63;99269.74;1672318;85;21427;-65
2021/03/03 01:05:37;;;;;;;7.00;3.37;;;;;;;0.42;67.32;99270.11;1672385;85;21187;-63
2021/03/03 01:08:05;;;;;;;5.62;3.42;;;;;;;0.46;67.67;99272.97;1676430;84;21324;-65
2021/03/03 01:10:34;;;;;;;6.62;5.22;;;;;;;0.39;67.52;99261.67;1647765;86;21199;-66
2021/03/03 01:13:03;;;;;;;8.70;4.45;;;;;;;0.43;67.08;99269.64;1676385;85;21634;-66
2021/03/03 01:15:54;;;;;;;8.13;4.00;;;;;;;0.44;65.71;99267.05;1647838;86;21191;-67
2021/03/03 01:18:24;;;;;;;7.30;4.65;;;;;;;0.44;65.71;99267.05;1690459;83;21150;-65
2021/03/03 01:20:53;;;;;;;4.30;2.70;;;;;;;0.45;64.05;99257.67;1690343;83;21358;-66
2021/03/03 01:23:21;;;;;;;4.35;3.08;;;;;;;0.48;63.71;99265.23;1690233;83;21328;-66
2021/03/03 01:26:02;;;;;;;5.60;2.62;;;;;;;0.52;64.29;99260.85;1631725;88;21735;-65
2021/03/03 01:28:30;;;;;;;8.73;4.62;;;;;;;0.56;61.69;99262.42;1631447;87;21145;-65
2021/03/03 01:30:58;;;;;;;5.28;3.65;;;;;;;0.61;64.22;99261.41;1631380;88;21173;-64
2021/03/03 01:33:30;;;;;;;5.75;3.22;;;;;;;0.65;63.56;99262.98;1631476;88;21221;-64
2021/03/03 01:35:58;;;;;;;11.60;4.42;;;;;;;0.66;63.01;99254.41;1631386;87;21145;-63
2021/03/03 01:38:27;;;;;;;9.28;3.87;;;;;;;0.76;63.97;99260.91;1631679;87;21225;-64
2021/03/03 01:40:59;;;;;;;7.85;4.87;;;;;;;0.78;65.21;99250.61;1631474;88;21199;-63
2021/03/03 01:43:32;;;;;;;4.37;3.02;;;;;;;0.78;65.21;99250.61;1631552;88;21201;-63
2021/03/03 01:46:00;;;;;;;5.15;3.75;;;;;;;0.76;64.04;99253.23;1631448;88;21598;-63
2021/03/03 01:48:28;;;;;;;6.20;3.47;;;;;;;0.73;64.55;99261.02;1631277;88;21173;-64
2021/03/03 01:50:58;;;;;;;7.45;4.47;;;;;;;0.70;63.86;99253.89;1631535;88;21192;-63
2021/03/03 01:53:26;;;;;;;7.33;4.47;;;;;;;0.65;64.43;99251.91;1631374;88;21605;-63
2021/03/03 01:55:57;;;;;;;10.00;4.22;;;;;;;0.65;64.08;99254.47;1631229;88;21156;-63
2021/03/03 01:58:25;;;;;;;4.35;3.12;;;;;;;0.60;63.95;99255.05;1631421;88;21633;-63
2021/03/03 02:00:55;;;;;;;8.08;3.80;;;;;;;0.55;65.19;99269.25;1631409;87;21141;-63
2021/03/03 02:03:24;;;;;;;4.25;2.90;;;;;;;0.45;65.69;99252.55;1631364;88;21211;-63
2021/03/03 02:05:55;;;;;;;10.03;3.45;;;;;;;0.35;67.14;99255.02;1631234;87;21169;-63
2021/03/03 02:08:34;;;;;;;5.87;3.45;;;;;;;0.35;67.14;99255.02;1631392;87;21221;-63
2021/03/03 02:11:26;;;;;;;4.67;3.30;;;;;;;0.37;67.50;99257.91;1631477;87;21178;-63
2021/03/03 02:14:05;;;;;;;5.62;2.98;;;;;;;0.40;65.70;99258.24;1631591;88;21212;-64
2021/03/03 02:16:36;;;;;;;5.95;3.55;;;;;;;0.39;65.78;99252.30;1631507;88;21184;-73
2021/03/03 02:19:06;;;;;;;8.63;4.25;;;;;;;0.34;64.76;99245.23;1631525;88;21204;-63
2021/03/03 02:21:39;;;;;;;5.80;3.72;;;;;;;0.35;64.95;99247.36;1631346;88;21157;-63
2021/03/03 02:24:23;;;;;;;12.13;4.92;;;;;;;0.35;65.21;99257.11;1630937;86;21581;-63
2021/03/03 02:26:58;;;;;;;3.58;2.85;;;;;;;0.22;64.83;99254.56;1649035;86;21179;-64
2021/03/03 02:29:29;;;;;;;5.90;2.95;;;;;;;0.22;64.83;99254.56;1666128;86;21171;-63
2021/03/03 02:31:59;;;;;;;5.53;3.67;;;;;;;0.24;65.54;99255.33;1666196;86;21644;-63
2021/03/03 02:34:31;;;;;;;5.33;3.02;;;;;;;0.14;65.57;99252.67;1666090;86;21611;-63
2021/03/03 02:37:00;;;;;;;7.75;2.92;;;;;;;-0.02;66.81;99247.63;1649522;86;21186;-63
2021/03/03 02:39:29;;;;;;;5.92;3.60;;;;;;;-0.02;66.81;99247.63;1666428;86;21202;-64
2021/03/03 02:42:01;;;;;;;5.75;3.60;;;;;;;-0.04;66.22;99269.84;1666393;86;21127;-63
2021/03/03 02:44:32;;;;;;;4.70;2.85;;;;;;;-0.11;67.17;99258.11;1665901;86;21801;-66
2021/03/03 02:47:01;;;;;;;7.35;4.00;;;;;;;-0.16;66.45;99256.16;1666747;85;21167;-63
2021/03/03 02:49:30;;;;;;;4.50;2.60;;;;;;;-0.18;65.76;99254.07;1666248;86;21340;-65
2021/03/03 02:51:58;;;;;;;4.50;2.55;;;;;;;-0.24;66.01;99247.45;1666454;86;21196;-62
2021/03/03 02:54:27;;;;;;;7.28;4.37;;;;;;;-0.23;66.27;99254.20;1666120;86;21187;-66
2021/03/03 02:56:56;;;;;;;6.22;3.55;;;;;;;-0.23;66.83;99254.64;1666201;86;21171;-63
2021/03/03 02:59:44;;;;;;;8.30;3.50;;;;;;;-0.23;66.83;99254.64;1665850;86;21198;-63
2021/03/03 03:02:16;;;;;;;3.17;2.60;;;;;;;-0.27;65.76;99255.64;1665754;86;21190;-63
2021/03/03 03:04:46;;;;;;;5.00;2.83;;;;;;;-0.27;65.76;99255.64;1665673;86;21199;-63
2021/03/03 03:07:21;;;;;;;6.42;3.27;;;;;;;-0.30;66.23;99249.31;1665888;85;21654;-65
2021/03/03 03:09:50;;;;;;;5.97;3.77;;;;;;;-0.30;66.23;99249.31;1666596;86;21198;-68
2021/03/03 03:12:24;;;;;;;5.00;3.80;;;;;;;-0.33;66.33;99259.63;1666445;86;21128;-63
2021/03/03 03:14:55;;;;;;;5.97;3.08;;;;;;;-0.43;66.25;99243.75;1665971;86;21326;-63
2021/03/03 03:17:26;;;;;;;6.83;3.50;;;;;;;-0.37;67.12;99254.20;1649616;86;21186;-63
2021/03/03 03:19:57;;;;;;;7.00;3.65;;;;;;;-0.38;66.61;99255.08;1666735;86;21572;-66
2021/03/03 03:22:27;;;;;;;5.10;3.00;;;;;;;-0.39;65.73;99254.70;1666359;86;21171;-63
2021/03/03 03:24:58;;;;;;;6.62;3.17;;;;;;;-0.44;65.66;99246.34;1663679;85;21199;-64
2021/03/03 03:27:33;;;;;;;8.75;2.77;;;;;;;-0.40;65.64;99258.12;1658993;85;21687;-63
2021/03/03 03:30:03;;;;;;;6.70;3.37;;;;;;;-0.41;66.06;99253.90;1658748;86;21184;-65
2021/03/03 03:32:32;;;;;;;3.92;3.00;;;;;;;-0.41;66.06;99253.90;1659070;85;21228;-63
2021/03/03 03:35:01;;;;;;;5.45;3.62;;;;;;;-0.42;66.43;99258.16;1649290;86;21603;-65
2021/03/03 03:37:30;;;;;;;3.72;2.83;;;;;;;-0.41;66.38;99256.45;1658717;86;21243;-64
2021/03/03 03:40:00;;;;;;;2.87;2.02;;;;;;;-0.41;65.51;99252.19;1658544;86;21136;-66
2021/03/03 03:42:30;;;;;;;3.98;3.22;;;;;;;-0.41;65.51;99252.19;1658658;86;21191;-62
2021/03/03 03:45:00;;;;;;;3.85;1.80;;;;;;;-0.39;65.91;99245.77;1658735;86;21608;-63
2021/03/03 03:47:28;;;;;;;3.72;2.10;;;;;;;-0.37;65.86;99251.66;1658696;86;21247;-65
2021/03/03 03:50:01;;;;;;;3.85;2.25;;;;;;;-0.36;65.90;99243.97;1658720;86;21208;-63
2021/03/03 03:52:29;;;;;;;11.83;3.25;;;;;;;-0.41;65.84;99229.22;1658564;86;21175;-63
2021/03/03 03:54:57;;;;;;;5.58;3.62;;;;;;;-0.33;65.81;99246.42;1658659;86;21167;-65
2021/03/03 03:57:26;;;;;;;12.58;2.67;;;;;;;-0.31;65.85;99242.56;1658841;86;21140;-64
2021/03/03 03:59:54;;;;;;;4.00;2.50;;;;;;;-0.31;65.85;99242.56;1658845;86;21208;-64
2021/03/03 04:02:27;;;;;;;5.10;3.33;;;;;;;-0.31;65.68;99247.20;1658756;86;22215;-68
2021/03/03 04:04:55;;;;;;;2.67;1.75;;;;;;;-0.30;65.45;99250.59;1658679;86;21204;-64
2021/03/03 04:07:24;;;;;;;6.42;3.12;;;;;;;-0.32;65.45;99248.11;1658534;86;21635;-64
2021/03/03 04:09:52;;;;;;;5.00;3.27;;;;;;;-0.33;65.82;99240.05;1659010;86;21203;-65
2021/03/03 04:12:20;;;;;;;5.97;3.05;;;;;;;-0.35;65.66;99243.06;1658882;86;21175;-65
2021/03/03 04:14:53;;;;;;;10.08;4.33;;;;;;;-0.38;65.50;99239.33;1658050;86;21192;-65
2021/03/03 04:17:21;;;;;;;4.53;3.08;;;;;;;-0.42;65.79;99240.73;1658608;86;21158;-64
2021/03/03 04:19:49;;;;;;;6.03;3.05;;;;;;;-0.42;65.79;99240.73;1658614;86;21230;-65
2021/03/03 04:22:18;;;;;;;4.90;2.72;;;;;;;-0.46;66.59;99238.71;1658650;86;21148;-64
2021/03/03 04:24:46;;;;;;;5.25;2.72;;;;;;;-0.58;66.15;99233.52;1659212;85;21171;-64
2021/03/03 04:27:14;;;;;;;8.93;2.95;;;;;;;-0.58;66.15;99233.52;1665945;85;21210;-64
2021/03/03 04:29:43;;;;;;;4.33;3.25;;;;;;;-0.55;66.13;99239.83;1665723;86;21159;-65
2021/03/03 04:32:11;;;;;;;6.03;3.60;;;;;;;-0.56;66.63;99238.16;1665681;86;21167;-64
2021/03/03 04:34:43;;;;;;;3.60;2.60;;;;;;;-0.59;67.54;99234.85;1665685;86;21210;-65
2021/03/03 04:37:13;;;;;;;5.45;3.25;;;;;;;-0.61;66.36;99239.14;1665833;85;21639;-65
2021/03/03 04:39:43;;;;;;;4.40;3.33;;;;;;;-0.61;66.36;99239.14;1666019;85;21171;-64
2021/03/03 04:42:11;;;;;;;12.88;7.83;;;;;;;-0.60;66.13;99234.45;1665798;86;21227;-65
2021/03/03 04:44:39;;;;;;;16.25;8.30;;;;;;;-0.60;66.93;99237.84;1665778;86;21147;-64
2021/03/03 04:47:07;;;;;;;17.17;11.25;;;;;;;-0.60;68.22;99239.55;1665835;86;21721;-65
2021/03/03 04:49:35;;;;;;;15.88;11.15;;;;;;;-0.63;66.79;99243.47;1665893;86;21829;-64
2021/03/03 04:52:04;;;;;;;36.83;21.77;;;;;;;-0.65;67.68;99243.94;1665772;86;21139;-65
2021/03/03 04:54:36;;;;;;;11.15;7.78;;;;;;;-0.65;67.68;99243.94;1665951;85;21148;-64
2021/03/03 04:57:27;;;;;;;8.20;3.40;;;;;;;-0.67;66.96;99243.16;1665864;85;21179;-65
2021/03/03 04:59:55;;;;;;;4.15;2.67;;;;;;;-0.67;66.96;99243.16;1623760;88;21401;-65
2021/03/03 05:02:24;;;;;;;4.00;2.77;;;;;;;-0.61;66.70;99245.52;1623833;88;21179;-64
2021/03/03 05:04:52;;;;;;;6.50;4.40;;;;;;;-0.61;66.64;99248.91;1623804;88;21612;-65
2021/03/03 05:07:20;;;;;;;4.90;2.98;;;;;;;-0.61;66.43;99248.91;1623836;87;21246;-64
2021/03/03 05:09:49;;;;;;;4.60;3.60;;;;;;;-0.61;66.43;99248.91;1623661;88;21215;-65
2021/03/03 05:12:17;;;;;;;6.37;4.45;;;;;;;-0.61;66.94;99248.08;1623896;88;21151;-63
2021/03/03 05:18:11;;;;;;;3.65;2.95;;;;;;;-0.61;66.89;99251.91;1624496;88;21589;-65
2021/03/03 05:24:17;;;;;;;5.58;3.37;;;;;;;-0.60;66.72;99253.58;1624648;88;21201;-64
2021/03/03 05:29:45;;;;;;;6.08;2.77;;;;;;;-0.59;67.35;99254.83;1696724;84;21212;-64
2021/03/03 05:32:13;;;;;;;7.35;3.85;;;;;;;-0.45;67.21;99258.25;1696633;84;21916;-64
2021/03/03 05:34:42;;;;;;;5.33;3.55;;;;;;;-0.45;67.21;99258.25;1697821;84;21176;-64
2021/03/03 05:37:11;;;;;;;3.30;2.40;;;;;;;-0.42;67.11;99264.98;1697902;84;21538;-65
2021/03/03 05:39:44;;;;;;;7.15;3.52;;;;;;;-0.44;67.78;99261.21;1697706;84;21650;-64
2021/03/03 05:42:13;;;;;;;5.12;3.83;;;;;;;-0.45;68.35;99267.19;1697861;84;21168;-64
2021/03/03 05:44:46;;;;;;;6.72;4.00;;;;;;;-0.49;68.86;99266.44;1697699;84;21300;-64
2021/03/03 05:47:16;;;;;;;7.65;3.30;;;;;;;-0.46;68.11;99268.05;1697831;84;21624;-65
2021/03/03 05:49:44;;;;;;;3.75;2.83;;;;;;;-0.42;68.27;99268.38;1697760;84;21615;-65
2021/03/03 05:52:15;;;;;;;2.80;2.33;;;;;;;-0.39;68.40;99275.13;1697907;84;21223;-65
2021/03/03 05:55:04;;;;;;;15.32;2.98;;;;;;;-0.39;68.40;99275.13;1697771;84;21208;-65
2021/03/03 05:57:32;;;;;;;9.53;3.77;;;;;;;-0.35;69.21;99271.14;1694483;84;21243;-65
2021/03/03 06:00:06;;;;;;;8.28;3.50;;;;;;;-0.28;68.45;99272.66;1694566;84;21209;-64
2021/03/03 06:02:37;;;;;;;3.52;2.72;;;;;;;-0.21;68.53;99272.04;1694691;84;21326;-64
2021/03/03 06:05:29;;;;;;;4.62;3.02;;;;;;;-0.14;68.26;99269.70;1694683;84;21716;-64
2021/03/03 06:07:59;;;;;;;7.47;4.53;;;;;;;-0.04;68.11;99276.22;1639921;86;21186;-66
2021/03/03 06:10:31;;;;;;;5.08;3.60;;;;;;;0.08;67.65;99277.58;1643081;86;21375;-67
2021/03/03 06:13:00;;;;;;;9.50;3.62;;;;;;;0.21;67.49;99278.42;1659981;85;21189;-65
2021/03/03 06:15:28;;;;;;;27.65;4.42;;;;;;;0.27;67.07;99273.58;1644460;86;22319;-65
2021/03/03 06:17:57;;;;;;;6.40;4.87;;;;;;;0.27;67.07;99273.58;1667709;86;21205;-65
2021/03/03 06:20:26;;;;;;;10.18;4.53;;;;;;;0.30;67.33;99277.31;1667830;85;21276;-66
2021/03/03 06:23:02;;;;;;;8.93;6.03;;;;;;;0.33;67.57;99284.87;1667843;85;21621;-65
2021/03/03 06:25:30;;;;;;;8.00;6.05;;;;;;;0.43;66.84;99278.58;1665948;86;21655;-65
2021/03/03 06:27:58;;;;;;;10.75;5.53;;;;;;;0.54;66.36;99280.39;1667378;85;21173;-69
2021/03/03 06:30:30;;;;;;;11.70;5.83;;;;;;;0.65;66.18;99282.59;1667894;86;21193;-66
2021/03/03 06:33:25;;;;;;;21.55;5.55;;;;;;;0.73;65.90;99272.52;1667611;86;21172;-65
2021/03/03 06:35:54;;;;;;;12.45;4.53;;;;;;;0.88;65.74;99279.69;1583931;89;21224;-69
2021/03/03 06:38:31;;;;;;;16.95;6.72;;;;;;;0.94;66.12;99273.51;1584203;90;21227;-67
2021/03/03 06:41:06;;;;;;;11.53;5.92;;;;;;;0.99;66.21;99281.03;1584311;89;21627;-65
2021/03/03 06:43:32;;;;;;;9.45;5.40;;;;;;;1.07;65.99;99278.61;1584243;89;21224;-66
2021/03/03 06:46:19;;;;;;;9.48;5.37;;;;;;;1.20;65.71;99268.80;1583906;89;21171;-66
2021/03/03 06:48:47;;;;;;;11.22;5.53;;;;;;;1.38;65.45;99276.67;1584196;89;21195;-66
2021/03/03 06:51:51;;;;;;;13.72;6.40;;;;;;;1.56;65.00;99274.33;1584255;90;21269;-66
2021/03/03 06:54:22;;;;;;;10.23;5.92;;;;;;;1.69;64.47;99267.89;1686245;83;21194;-67
2021/03/03 06:56:53;;;;;;;8.18;4.83;;;;;;;1.84;64.22;99263.48;1686449;85;21618;-66
2021/03/03 06:59:26;;;;;;;11.93;5.40;;;;;;;2.02;63.84;99267.94;1686683;84;21167;-70
2021/03/03 07:02:01;;;;;;;10.43;5.45;;;;;;;2.14;63.28;99270.00;1686697;84;21655;-66
2021/03/03 07:04:45;;;;;;;11.30;5.42;;;;;;;2.27;62.84;99261.41;1687175;85;21178;-70
2021/03/03 07:07:16;;;;;;;8.83;5.28;;;;;;;2.44;62.47;99260.75;1686583;84;21177;-65
2021/03/03 07:09:50;;;;;;;15.63;5.97;;;;;;;2.59;61.95;99258.41;1686489;84;21181;-66
2021/03/03 07:12:26;;;;;;;9.00;5.05;;;;;;;2.91;61.10;99248.56;1686938;83;21608;-66
2021/03/03 07:15:02;;;;;;;8.45;4.70;;;;;;;2.91;61.10;99248.56;1686819;83;21599;-66
2021/03/03 07:17:34;;;;;;;7.10;5.15;;;;;;;3.06;60.43;99246.19;1686910;85;21209;-66
2021/03/03 07:20:10;;;;;;;9.73;4.55;;;;;;;3.21;60.61;99249.39;1686629;84;21143;-66
2021/03/03 07:22:41;;;;;;;8.23;4.12;;;;;;;3.37;59.37;99251.29;1686412;84;21171;-66
2021/03/03 07:25:13;;;;;;;24.25;9.20;;;;;;;3.50;58.49;99249.87;1686451;83;21178;-65
2021/03/03 07:27:43;;;;;;;21.90;7.05;;;;;;;3.65;58.17;99247.45;1686736;85;21229;-66
2021/03/03 07:33:23;;;;;;;7.55;3.27;;;;;;;3.98;57.06;99239.09;1720458;83;21184;-66
2021/03/03 07:35:53;;;;;;;9.13;4.58;;;;;;;4.19;57.19;99232.52;1720913;83;21163;-66
2021/03/03 07:38:22;;;;;;;11.10;4.92;;;;;;;4.38;57.03;99240.20;1720733;83;21191;-66
2021/03/03 07:40:50;;;;;;;6.05;3.02;;;;;;;4.53;53.88;99236.05;1720605;83;21159;-66
2021/03/03 07:43:22;;;;;;;12.47;4.33;;;;;;;4.67;54.78;99236.20;1720852;83;21155;-66
2021/03/03 07:45:51;;;;;;;8.58;5.08;;;;;;;4.81;53.02;99236.38;1683805;85;21599;-66
2021/03/03 07:48:21;;;;;;;6.55;4.25;;;;;;;4.95;52.99;99236.50;1683717;84;21231;-65
2021/03/03 07:50:49;;;;;;;10.85;4.75;;;;;;;5.11;52.22;99238.69;1683789;84;21159;-66
2021/03/03 07:53:19;;;;;;;5.78;3.08;;;;;;;5.27;52.32;99236.17;1683730;84;21167;-66
2021/03/03 07:55:47;;;;;;;5.17;3.72;;;;;;;5.45;52.59;99235.66;1683919;85;21183;-66
2021/03/03 07:58:17;;;;;;;9.38;4.28;;;;;;;5.61;51.49;99232.20;1671915;85;21188;-66
2021/03/03 08:00:45;;;;;;;8.43;4.00;;;;;;;5.74;50.85;99232.40;1683807;84;21206;-66
2021/03/03 08:03:14;;;;;;;8.48;4.72;;;;;;;5.87;50.96;99229.58;1683843;85;21167;-66
2021/03/03 08:05:44;;;;;;;8.23;4.33;;;;;;;6.02;51.27;99231.78;1682316;85;21216;-66
2021/03/03 08:08:25;;;;;;;8.73;3.70;;;;;;;6.18;51.41;99228.29;1671901;85;21188;-66
2021/03/03 08:11:02;;;;;;;9.60;3.87;;;;;;;6.33;50.09;99227.89;1683910;85;21219;-69
2021/03/03 08:13:39;;;;;;;8.05;3.55;;;;;;;6.50;50.52;99223.89;1682083;84;21182;-66
2021/03/03 08:16:09;;;;;;;15.40;3.90;;;;;;;6.67;50.50;99223.77;1683802;84;21171;-66
2021/03/03 08:18:56;;;;;;;8.05;3.00;;;;;;;6.87;50.54;99212.76;1683919;84;21198;-64
2021/03/03 08:21:30;;;;;;;28.15;4.37;;;;;;;7.02;47.49;99208.82;1672006;86;21584;-68
2021/03/03 08:26:44;;;;;;;8.35;4.72;;;;;;;7.24;45.57;99207.08;1668055;85;21635;-66
2021/03/03 08:29:17;;;;;;;8.78;4.05;;;;;;;7.39;46.08;99198.89;1669124;85;21200;-66
2021/03/03 08:32:10;;;;;;;18.20;4.60;;;;;;;7.54;46.49;99205.70;1668963;86;21200;-66
2021/03/03 08:34:51;;;;;;;9.88;5.37;;;;;;;7.67;46.56;99199.30;1603235;88;21285;-66
2021/03/03 08:37:32;;;;;;;14.18;5.53;;;;;;;7.82;46.52;99198.38;1628980;87;21213;-66
2021/03/03 08:40:01;;;;;;;7.47;4.45;;;;;;;7.95;47.49;99197.50;1603171;89;21189;-66
2021/03/03 08:42:33;;;;;;;10.55;4.37;;;;;;;8.22;50.36;99203.14;1628830;87;21261;-66
2021/03/03 08:45:08;;;;;;;9.63;6.15;;;;;;;8.34;47.06;99201.94;1603315;88;21201;-66
2021/03/03 08:50:48;;;;;;;11.33;4.80;;;;;;;8.59;46.43;99189.54;1700447;83;21179;-66
2021/03/03 08:53:24;;;;;;;16.37;4.85;;;;;;;8.65;46.29;99196.89;1700461;84;21170;-66
2021/03/03 08:55:55;;;;;;;8.73;3.30;;;;;;;8.71;45.76;99188.73;1700600;83;21167;-67
2021/03/03 08:58:40;;;;;;;6.62;4.03;;;;;;;8.86;45.39;99192.90;1700503;84;21171;-66
2021/03/03 09:01:08;;;;;;;12.13;4.75;;;;;;;9.02;44.89;99192.24;1700394;84;21211;-66
2021/03/03 09:03:38;;;;;;;8.58;4.25;;;;;;;9.19;44.71;99189.78;1700731;84;21592;-66
2021/03/03 09:06:06;;;;;;;13.08;5.20;;;;;;;9.60;43.99;99188.25;1700570;83;21217;-66
2021/03/03 09:08:34;;;;;;;17.55;5.47;;;;;;;9.88;42.67;99184.06;1700504;83;21252;-66
2021/03/03 09:11:10;;;;;;;8.25;4.00;;;;;;;10.23;42.66;99185.46;1700424;83;21241;-66
2021/03/03 09:13:39;;;;;;;13.10;4.47;;;;;;;10.49;41.21;99175.80;1699964;83;21151;-65
2021/03/03 09:16:12;;;;;;;14.98;4.28;;;;;;;10.80;40.99;99174.35;1700441;83;21214;-66
2021/03/03 09:18:40;;;;;;;8.28;4.62;;;;;;;11.02;41.11;99173.55;1700737;84;21630;-66
2021/03/03 09:21:11;;;;;;;6.80;3.98;;;;;;;11.44;39.95;99169.80;1700369;84;21175;-66
2021/03/03 09:23:40;;;;;;;8.28;5.17;;;;;;;11.72;42.27;99166.38;1700453;83;21244;-66
2021/03/03 09:26:20;;;;;;;16.40;4.95;;;;;;;11.86;40.77;99169.58;1700489;83;21133;-66
2021/03/03 09:28:48;;;;;;;15.32;5.62;;;;;;;12.28;40.25;99165.30;1700448;83;21132;-66
2021/03/03 09:31:41;;;;;;;11.50;4.92;;;;;;;12.61;39.72;99165.61;1700690;83;21160;-66
2021/03/03 09:34:10;;;;;;;11.45;4.75;;;;;;;12.68;38.10;99168.56;1702015;83;21315;-65
2021/03/03 09:36:41;;;;;;;11.28;4.87;;;;;;;13.12;37.50;99166.17;1705647;84;21724;-65
2021/03/03 09:39:09;;;;;;;11.95;6.10;;;;;;;13.55;39.60;99167.25;1745757;82;21548;-67
2021/03/03 09:41:37;;;;;;;12.80;6.22;;;;;;;13.15;37.76;99172.45;1707795;83;21161;-67
2021/03/03 09:44:08;;;;;;;11.33;6.05;;;;;;;13.10;36.57;99170.70;1745452;82;21623;-67
2021/03/03 09:46:59;;;;;;;12.63;4.95;;;;;;;13.36;36.80;99169.78;1707693;83;21129;-65
2021/03/03 09:49:31;;;;;;;9.75;5.12;;;;;;;13.79;36.66;99168.58;1745653;81;21200;-65
2021/03/03 09:51:59;;;;;;;10.55;4.00;;;;;;;14.48;34.57;99167.23;1707621;83;21130;-67
2021/03/03 09:54:35;;;;;;;10.90;4.97;;;;;;;14.38;34.27;99163.81;1745603;82;21156;-67
2021/03/03 09:59:56;;;;;;;13.88;5.20;;;;;;;14.49;34.28;99168.89;1646738;87;21224;-67
2021/03/03 10:02:27;;;;;;;11.60;5.20;;;;;;;14.81;34.04;99165.16;1647711;87;21189;-67
2021/03/03 10:04:58;;;;;;;11.38;5.03;;;;;;;15.39;34.14;99164.03;1647692;87;21181;-67
2021/03/03 10:07:28;;;;;;;13.83;5.30;;;;;;;15.68;33.98;99154.75;1666820;86;21259;-66
2021/03/03 10:10:19;;;;;;;11.03;4.95;;;;;;;15.37;33.99;99154.17;1666636;86;21179;-69
2021/03/03 10:12:47;;;;;;;11.28;5.20;;;;;;;15.27;35.15;99149.95;1679759;84;21209;-65
2021/03/03 10:15:22;;;;;;;9.70;4.97;;;;;;;15.44;33.46;99157.89;1679838;85;21204;-65
2021/03/03 10:17:55;;;;;;;12.78;5.45;;;;;;;15.95;33.32;99147.37;1679322;84;21180;-65
2021/03/03 10:20:38;;;;;;;13.72;5.95;;;;;;;15.65;33.66;99151.12;1679271;84;21189;-66
2021/03/03 10:23:13;;;;;;;11.53;5.92;;;;;;;15.96;33.29;99138.05;1679404;84;21601;-65
2021/03/03 10:25:55;;;;;;;10.48;5.78;;;;;;;16.11;32.78;99139.66;1679274;85;21205;-67
2021/03/03 10:28:26;;;;;;;13.53;5.67;;;;;;;16.08;33.13;99134.23;1678880;85;21133;-67
2021/03/03 10:30:57;;;;;;;11.08;5.08;;;;;;;16.02;33.68;99130.92;1679386;85;21598;-67
2021/03/03 10:33:34;;;;;;;11.10;5.20;;;;;;;16.35;33.27;99129.41;1679248;85;21236;-67
2021/03/03 10:36:19;;;;;;;10.75;5.28;;;;;;;17.09;32.78;99126.36;1679443;84;21268;-68
2021/03/03 10:42:07;;;;;;;13.13;5.75;;;;;;;17.61;30.33;99103.98;1610574;88;21196;-66
2021/03/03 10:44:43;;;;;;;10.08;5.30;;;;;;;17.85;29.95;99111.94;1609360;88;21153;-63
2021/03/03 10:47:10;;;;;;;;;;;;;;;17.65;29.83;99105.30;1611841;88;21176;-64
2021/03/03 10:49:39;;;;;;;8.85;4.37;;;;;;;17.28;31.51;99106.44;1581301;91;20422;-64
2021/03/03 10:52:20;;;;;;;9.35;5.53;;;;;;;17.42;30.77;99095.84;1581552;91;21353;-65
2021/03/03 10:54:51;;;;;;;11.25;5.72;;;;;;;17.03;30.80;99095.50;1581381;89;21182;-64
2021/03/03 10:57:21;;;;;;;14.35;7.80;;;;;;;18.12;30.31;99089.31;1583085;90;21243;-65
2021/03/03 11:00:03;;;;;;;9.15;4.55;;;;;;;17.51;30.00;99083.05;1581584;90;21176;-64
2021/03/03 11:02:31;;;;;;;14.20;5.40;;;;;;;17.63;30.06;99075.73;1582781;90;21180;-65
2021/03/03 11:05:08;;;;;;;11.05;5.25;;;;;;;18.00;29.22;99081.41;1581522;91;21208;-65
2021/03/03 11:07:36;;;;;;;15.35;6.00;;;;;;;18.67;28.86;99075.52;1578032;89;21203;-65
2021/03/03 11:12:49;;;;;;;10.85;4.62;;;;;;;19.54;27.62;99066.67;1699456;84;21113;-64
2021/03/03 11:15:19;;;;;;;9.75;5.03;;;;;;;19.13;27.99;99060.27;1699628;84;21148;-65
2021/03/03 11:17:49;;;;;;;12.10;5.30;;;;;;;20.18;27.22;99061.49;1699518;84;21621;-65
2021/03/03 11:20:19;;;;;;;11.08;5.72;;;;;;;20.98;25.39;99048.53;1699326;84;21151;-64
2021/03/03 11:22:47;;;;;;;12.23;4.95;;;;;;;20.90;25.19;99045.98;1699308;84;21148;-65
2021/03/03 11:25:16;;;;;;;14.53;6.30;;;;;;;19.84;26.24;99040.30;1699448;84;21136;-65
2021/03/03 11:27:44;;;;;;;8.58;5.03;;;;;;;19.70;26.37;99045.02;1699683;84;21157;-64
2021/03/03 11:30:14;;;;;;;16.10;6.62;;;;;;;20.76;24.84;99031.79;1699371;84;21203;-66
2021/03/03 11:32:42;;;;;;;9.38;4.97;;;;;;;21.05;24.66;99017.24;1699495;84;21169;-64
2021/03/03 11:35:14;;;;;;;10.53;5.15;;;;;;;20.90;24.40;99024.86;1699373;84;21145;-65
2021/03/03 11:37:42;;;;;;;9.95;5.55;;;;;;;20.55;25.56;99019.79;1699424;84;21226;-65
2021/03/03 11:40:15;;;;;;;11.43;5.20;;;;;;;20.93;24.41;99014.78;1699347;84;21148;-65
2021/03/03 11:42:43;;;;;;;11.38;5.08;;;;;;;21.29;24.71;99011.69;1699615;84;21165;-65
2021/03/03 11:48:01;;;;;;;8.73;4.45;;;;;;;19.81;25.93;99009.52;1631821;87;21155;-65
2021/03/03 11:50:32;;;;;;;12.30;5.00;;;;;;;20.58;24.79;99002.30;1631833;88;21127;-65
2021/03/03 11:53:00;;;;;;;14.65;6.58;;;;;;;20.63;24.67;98999.91;1631733;88;21229;-65
2021/03/03 11:55:28;;;;;;;10.35;7.15;;;;;;;21.62;23.40;98994.06;1631518;88;21200;-65
2021/03/03 11:57:56;;;;;;;7.33;3.87;;;;;;;21.74;23.33;98986.78;1631686;88;21136;-65
2021/03/03 12:00:25;;;;;;;8.03;4.90;;;;;;;21.73;23.32;98982.99;1631432;88;21156;-65
2021/03/03 12:02:54;;;;;;;9.88;4.80;;;;;;;21.84;23.85;98979.02;1631639;88;21620;-65
2021/03/03 12:05:23;;;;;;;10.55;4.85;;;;;;;21.59;23.20;98982.05;1631531;88;21215;-65
2021/03/03 12:07:55;;;;;;;12.45;5.40;;;;;;;21.70;22.81;98989.48;1631569;88;21171;-65
2021/03/03 12:10:24;;;;;;;9.18;4.25;;;;;;;19.89;24.45;98988.37;1631571;88;21180;-65
2021/03/03 12:12:52;;;;;;;10.65;6.33;;;;;;;21.23;23.24;98979.42;1631638;88;21288;-65
2021/03/03 12:15:23;;;;;;;11.60;4.92;;;;;;;21.27;22.85;98976.73;1632252;88;21221;-65
2021/03/03 12:17:52;;;;;;;7.80;4.15;;;;;;;21.55;21.93;98978.16;1630189;88;21140;-65
2021/03/03 12:20:24;;;;;;;9.28;4.05;;;;;;;22.49;21.08;98962.88;1628832;88;21204;-65
2021/03/03 12:22:52;;;;;;;6.65;3.52;;;;;;;23.17;20.27;98957.53;1630197;88;21184;-65
2021/03/03 12:25:21;;;;;;;8.68;4.58;;;;;;;24.04;19.14;98956.17;1630577;88;21173;-64